Terminal Aerodrome Forecast
Issued by NWS

Home | Current Version | Previous Version | Graphics & Text | Print | Product List | Glossary On
Versions: 1 2 3 4 5 6 7 8 9 10 11 12 13 14 15 16
000
FTUS43 KMPX 232343
TAFAXN
TAF
KAXN 232343Z 2400/2424 18013G20KT P6SM VCSH SCT040 SCT250
     FM240300 16010KT P6SM SCT040 BKN250
     FM240800 30006KT P6SM SCT015 BKN035
     FM241700 28014G22KT P6SM SKC=

USA.gov is the U.S. government's official web portal to all federal, state and local government web resources and services.